x

South Hatteras - 225 South Of Cape Hatteras (41002) Wave Buoy

9:50am - Mon 27th Mar 2017 All times are EDT. -4 hours from GMT.

  • Sig Wave height 5.2ft
  • Swell Direction
  • Peak Period 8s
  • Average Period 7s
  • Wind
    16mph, 18mph gusts
  • Sea Temp 72°f
  • 空気 Temp 69°f
  • Sea Pressure 1021.4mb
  • South Hatteras - 225 South Of Cape Hatteras
  • South Hatteras - 225 South Of Cape Hatteras

More Historic Weather Station data

Upgrade to MSW Pro to gain access to the past 30 days of data for over 8000 Wavebouys and Weather Stations around the globe.

Join Pro

Comparision Forecast

View Surf forecast
   
Mon 03/27 9:50am 5ft 8s 7s 16 18 mph 1021.4mb 72f 69f
8:50am 5ft 9s 6s 13 16 mph 1021.2mb 72f 69f
7:50am 5.5ft 9s 7s 11 13 mph 1021mb 72f 69f
6:50am 5ft 8s 6s 11 13 mph 1020.6mb 72f 69f
5:50am 5ft 9s 6s 13 18 mph 1020.2mb 72f 68f
4:50am 5.5ft 10s 6s 13 16 mph 1020.3mb 72f 68f
3:50am 5ft 8s 6s 13 16 mph 1020.5mb 72f 68f
2:50am 5ft 9s 6s 13 18 mph 1020.9mb 72f 68f
1:50am 5.5ft 8s 6s 13 18 mph 1021.5mb 72f 67f
12:50am 4.5ft 7s 6s 13 18 mph 1022.2mb 72f 68f
Sun 03/26 11:50pm 5ft 9s 6s 13 18 mph 1023.1mb 72f 68f
10:50pm 4.5ft 10s 6s 11 16 mph 1023.6mb 72f 69f
9:50pm 5ft 9s 6s 13 16 mph 1023.4mb 72f 69f
8:50pm 5ft 9s 6s 16 20 mph 1023.2mb 72f 67f
7:50pm 5ft 8s 6s 11 13 mph 1022.9mb 72f 68f
6:50pm 4.5ft 9s 6s 13 18 mph 1022.8mb 72f 68f
5:50pm 5ft 9s 6s 18 20 mph 1022.7mb 72f 68f
4:50pm 5ft 10s 6s 16 20 mph 1022.6mb 72f 68f
3:50pm 4.5ft 10s 6s 16 20 mph 1022.8mb 72f 68f
2:50pm 5ft 9s 6s 13 18 mph 1023.2mb 72f 68f
1:50pm 5ft 9s 6s 13 18 mph 1024.2mb 72f 68f
12:50pm 5ft 9s 6s 13 18 mph 1024.8mb 72f 68f
11:50am 5ft 10s 6s 13 18 mph 1025mb 72f 68f
10:50am 5ft 8s 6s 11 16 mph 1025.5mb 72f 68f
9:50am 5ft 9s 6s 11 16 mph 1025.3mb 72f 67f
8:50am 5ft 8s 6s 9 13 mph 1024.9mb 72f 67f
7:50am 5ft 9s 6s 7 13 mph 1024.6mb 72f 67f
6:50am 5ft 8s 6s 16 20 mph 1023.9mb 72f 67f
5:50am 5ft 9s 6s 13 18 mph 1023.7mb 72f 67f
4:50am 5ft 7s 6s 11 16 mph 1023.5mb 72f 67f
3:50am 4.5ft 8s 6s 16 20 mph 1023.5mb 72f 67f
2:50am 5ft 9s 6s 16 20 mph 1023.9mb 72f 67f
1:50am 4.5ft 8s 6s 13 18 mph 1024.8mb 73f 67f
12:50am 4.5ft 8s 6s 13 18 mph 1025.8mb 73f 67f
Sat 03/25 11:50pm 4.5ft 8s 6s 13 18 mph 1026.5mb 73f 67f
10:50pm 4.5ft 8s 6s 13 18 mph 1026.7mb 73f 67f
9:50pm 4.5ft 8s 6s 11 16 mph 1026.6mb 73f 67f
8:50pm 4.5ft 8s 6s 11 13 mph 1026.4mb 73f 67f
7:50pm 4.5ft 8s 6s 9 13 mph 1025.8mb 73f 67f
6:50pm 4.5ft 8s 6s 9 11 mph 1025.4mb 73f 66f
5:50pm 4.5ft 7s 6s 9 13 mph 1025.6mb 73f 66f
4:50pm 4.5ft 8s 6s 11 16 mph 1026.1mb 73f 66f
3:50pm 4.5ft 7s 6s 13 16 mph 1026.7mb 73f 66f
2:50pm 4.5ft 9s 6s 13 18 mph 1027.5mb 73f 66f
1:50pm 4.5ft 8s 6s 13 18 mph 1028.4mb 73f 66f
12:50pm 4.5ft 7s 6s 13 16 mph 1029.2mb 73f 66f
11:50am 4.5ft 8s 6s 16 20 mph 1029.3mb 73f 66f
10:50am 4.5ft 8s 6s 13 16 mph 1029.6mb 73f 65f
9:50am 4.5ft 7s 6s 11 16 mph 1029.5mb 73f 65f
8:50am 4.5ft 8s 6s 13 18 mph 1028.9mb 73f 65f
7:50am 4.5ft 9s 6s 9 13 mph 1029.1mb 73f 64f
6:50am 4.5ft 8s 6s 4 7 mph 1028.8mb 73f 64f
5:50am 5ft 8s 6s 9 11 mph 1028.5mb 73f 64f
4:50am 5ft 8s 6s 9 13 mph 1028mb 73f 64f
3:50am 4.5ft 7s 6s 7 9 mph 1028.4mb 73f 65f
2:50am 5ft 11s 6s 13 18 mph 1028.8mb 73f 65f
1:50am 5ft 8s 6s 11 20 mph 1029.3mb 73f 64f
12:50am 5ft 8s 6s 18 22 mph 1029.7mb 73f 65f
Fri 03/24 11:50pm 5ft 7s 6s 16 20 mph 1030.6mb 73f 64f
10:50pm 5ft 7s 6s 18 22 mph 1030.8mb 73f 64f
9:50pm 5ft 8s 6s 16 20 mph 1031.1mb 74f 64f
8:50pm 5ft 11s 6s 13 20 mph 1031.3mb 74f 64f
7:50pm 5ft 7s 6s 13 18 mph 1031mb 74f 64f
6:50pm 5ft 10s 6s 16 22 mph 1030.5mb 74f 64f
5:50pm 5ft 9s 6s 13 18 mph 1030.9mb 74f 64f
4:50pm 5.5ft 9s 6s 13 16 mph 1031.2mb 74f 64f
3:50pm 5ft 10s 6s 18 22 mph 1031.4mb 74f 64f
2:50pm 5ft 7s 6s 16 18 mph 1031.8mb 73f 64f
1:50pm 4.5ft 11s 6s 13 18 mph 1032.8mb 73f 63f
12:50pm 5ft 10s 6s 16 20 mph 1033.3mb 73f 64f
11:50am 5ft 10s 6s 13 18 mph 1033.5mb 73f 63f
10:50am 5.5ft 10s 6s 16 22 mph 1033.3mb 73f 63f
9:50am 5.5ft 10s 6s 13 18 mph 1033.1mb 73f 63f
8:50am 5.5ft 10s 6s 20 25 mph 1033mb 73f 63f
7:50am 6ft 8s 6s 16 20 mph 1033.3mb 73f 63f
6:50am 6ft 9s 6s 16 22 mph 1032.6mb 73f 62f
5:50am 5.5ft 8s 6s 16 22 mph 1031.9mb 73f 62f
4:50am 6ft 10s 6s 18 25 mph 1031.1mb 73f 62f
3:50am 6ft 10s 6s 18 22 mph 1031.2mb 73f 62f
2:50am 5ft 7s 6s 16 22 mph 1031.8mb 73f 62f
1:50am 6ft 10s 6s 20 25 mph 1032mb 72f 62f
12:50am 6ft 8s 6s 18 22 mph 1032.3mb 72f 62f
Thu 03/23 11:50pm 6ft 10s 6s 18 22 mph 1032.3mb 73f 62f
10:50pm 6.5ft 10s 6s 20 25 mph 1032.1mb 72f 62f
9:50pm 6.5ft 11s 6s 20 25 mph 1031.8mb 72f 62f
8:50pm 7ft 11s 6s 22 29 mph 1031mb 72f 62f
7:50pm 7ft 10s 6s 22 27 mph 1030.7mb 72f 61f
6:50pm 7ft 11s 6s 20 29 mph 1030.4mb 72f 61f
5:50pm 7ft 10s 6s 22 27 mph 1029.8mb 72f 61f
4:50pm 7.5ft 10s 6s 20 27 mph 1029.6mb 72f 61f
3:50pm 7ft 10s 6s 22 27 mph 1029.7mb 72f 60f
2:50pm 7ft 9s 6s 20 27 mph 1030mb 72f 60f